sensor_id;sensor_type;location;lat;lon;timestamp;temperature;humidity
34147;DHT22;20423;49.448;9.056;2023-09-30T00:01:01;13.50;99.90
34147;DHT22;20423;49.448;9.056;2023-09-30T00:03:27;13.50;99.90
34147;DHT22;20423;49.448;9.056;2023-09-30T00:05:54;13.50;99.90
34147;DHT22;20423;49.448;9.056;2023-09-30T00:08:19;13.50;99.90
34147;DHT22;20423;49.448;9.056;2023-09-30T00:11:16;13.40;99.90
34147;DHT22;20423;49.448;9.056;2023-09-30T00:13:42;13.30;99.90
34147;DHT22;20423;49.448;9.056;2023-09-30T00:16:08;13.20;99.90
34147;DHT22;20423;49.448;9.056;2023-09-30T00:18:34;13.20;99.90
34147;DHT22;20423;49.448;9.056;2023-09-30T00:21:00;13.10;99.90
34147;DHT22;20423;49.448;9.056;2023-09-30T00:23:26;13.10;99.90
34147;DHT22;20423;49.448;9.056;2023-09-30T00:25:51;13.10;99.90
34147;DHT22;20423;49.448;9.056;2023-09-30T00:28:17;13.00;99.90
34147;DHT22;20423;49.448;9.056;2023-09-30T00:30:43;13.00;99.90
34147;DHT22;20423;49.448;9.056;2023-09-30T00:33:13;13.00;99.90
34147;DHT22;20423;49.448;9.056;2023-09-30T00:35:39;13.00;99.90
34147;DHT22;20423;49.448;9.056;2023-09-30T00:38:04;13.00;99.90
34147;DHT22;20423;49.448;9.056;2023-09-30T00:40:30;13.00;99.90
34147;DHT22;20423;49.448;9.056;2023-09-30T00:42:58;13.00;99.90
34147;DHT22;20423;49.448;9.056;2023-09-30T00:45:23;13.00;99.90
34147;DHT22;20423;49.448;9.056;2023-09-30T00:47:49;13.00;99.90
34147;DHT22;20423;49.448;9.056;2023-09-30T00:50:16;13.00;99.90
34147;DHT22;20423;49.448;9.056;2023-09-30T00:52:45;13.00;99.90
34147;DHT22;20423;49.448;9.056;2023-09-30T00:55:12;13.00;99.90
34147;DHT22;20423;49.448;9.056;2023-09-30T00:57:38;13.00;99.90
34147;DHT22;20423;49.448;9.056;2023-09-30T01:00:05;13.00;99.90
34147;DHT22;20423;49.448;9.056;2023-09-30T01:02:31;13.10;99.90
34147;DHT22;20423;49.448;9.056;2023-09-30T01:04:57;13.10;99.90
34147;DHT22;20423;49.448;9.056;2023-09-30T01:07:23;13.10;99.90
34147;DHT22;20423;49.448;9.056;2023-09-30T01:09:49;13.10;99.90
34147;DHT22;20423;49.448;9.056;2023-09-30T01:12:16;13.10;99.90
34147;DHT22;20423;49.448;9.056;2023-09-30T01:14:42;13.10;99.90
34147;DHT22;20423;49.448;9.056;2023-09-30T01:17:08;13.10;99.90
34147;DHT22;20423;49.448;9.056;2023-09-30T01:19:34;13.10;99.90
34147;DHT22;20423;49.448;9.056;2023-09-30T01:22:00;13.10;99.90
34147;DHT22;20423;49.448;9.056;2023-09-30T01:24:28;13.10;99.90
34147;DHT22;20423;49.448;9.056;2023-09-30T01:26:53;13.10;99.90
34147;DHT22;20423;49.448;9.056;2023-09-30T01:29:19;13.10;99.90
34147;DHT22;20423;49.448;9.056;2023-09-30T01:31:46;13.10;99.90
34147;DHT22;20423;49.448;9.056;2023-09-30T01:34:16;13.20;99.90
34147;DHT22;20423;49.448;9.056;2023-09-30T01:36:44;13.20;99.90
34147;DHT22;20423;49.448;9.056;2023-09-30T01:39:11;13.10;99.90
34147;DHT22;20423;49.448;9.056;2023-09-30T01:41:38;13.10;99.90
34147;DHT22;20423;49.448;9.056;2023-09-30T01:44:06;13.10;99.90
34147;DHT22;20423;49.448;9.056;2023-09-30T01:46:32;13.10;99.90
34147;DHT22;20423;49.448;9.056;2023-09-30T01:48:59;13.10;99.90
34147;DHT22;20423;49.448;9.056;2023-09-30T01:51:25;13.10;99.90
34147;DHT22;20423;49.448;9.056;2023-09-30T01:53:50;13.10;99.90
34147;DHT22;20423;49.448;9.056;2023-09-30T01:56:16;13.10;99.90
34147;DHT22;20423;49.448;9.056;2023-09-30T01:58:42;13.20;99.90
34147;DHT22;20423;49.448;9.056;2023-09-30T02:01:09;13.10;99.90
34147;DHT22;20423;49.448;9.056;2023-09-30T02:03:34;13.10;99.90
34147;DHT22;20423;49.448;9.056;2023-09-30T02:06:00;13.10;99.90
34147;DHT22;20423;49.448;9.056;2023-09-30T02:08:26;13.10;99.90
34147;DHT22;20423;49.448;9.056;2023-09-30T02:10:51;13.10;99.90
34147;DHT22;20423;49.448;9.056;2023-09-30T02:13:18;13.10;99.90
34147;DHT22;20423;49.448;9.056;2023-09-30T02:15:44;13.20;99.90
34147;DHT22;20423;49.448;9.056;2023-09-30T02:18:10;13.10;99.90
34147;DHT22;20423;49.448;9.056;2023-09-30T02:20:36;13.20;99.90
34147;DHT22;20423;49.448;9.056;2023-09-30T02:23:13;13.10;99.90
34147;DHT22;20423;49.448;9.056;2023-09-30T02:25:41;13.10;99.90
34147;DHT22;20423;49.448;9.056;2023-09-30T02:28:39;13.10;99.90
34147;DHT22;20423;49.448;9.056;2023-09-30T02:31:05;13.10;99.90
34147;DHT22;20423;49.448;9.056;2023-09-30T02:33:33;13.10;99.90
34147;DHT22;20423;49.448;9.056;2023-09-30T02:36:02;13.10;99.90
34147;DHT22;20423;49.448;9.056;2023-09-30T02:38:31;13.10;99.90
34147;DHT22;20423;49.448;9.056;2023-09-30T02:40:56;13.10;99.90
34147;DHT22;20423;49.448;9.056;2023-09-30T02:43:22;13.10;99.90
34147;DHT22;20423;49.448;9.056;2023-09-30T02:45:48;13.10;99.90
34147;DHT22;20423;49.448;9.056;2023-09-30T02:48:14;13.10;99.90
34147;DHT22;20423;49.448;9.056;2023-09-30T02:50:42;13.10;99.90
34147;DHT22;20423;49.448;9.056;2023-09-30T02:53:10;13.10;99.90
34147;DHT22;20423;49.448;9.056;2023-09-30T02:55:36;13.10;99.90
34147;DHT22;20423;49.448;9.056;2023-09-30T02:58:02;13.10;99.90
34147;DHT22;20423;49.448;9.056;2023-09-30T03:00:29;13.10;99.90
34147;DHT22;20423;49.448;9.056;2023-09-30T03:03:00;13.10;99.90
34147;DHT22;20423;49.448;9.056;2023-09-30T03:05:27;13.00;99.90
34147;DHT22;20423;49.448;9.056;2023-09-30T03:07:56;13.00;99.90
34147;DHT22;20423;49.448;9.056;2023-09-30T03:10:22;13.10;99.90
34147;DHT22;20423;49.448;9.056;2023-09-30T03:12:50;13.10;99.90
34147;DHT22;20423;49.448;9.056;2023-09-30T03:15:16;13.00;99.90
34147;DHT22;20423;49.448;9.056;2023-09-30T03:17:42;13.00;99.90
34147;DHT22;20423;49.448;9.056;2023-09-30T03:20:09;13.00;99.90
34147;DHT22;20423;49.448;9.056;2023-09-30T03:22:44;13.00;99.90
34147;DHT22;20423;49.448;9.056;2023-09-30T03:25:13;13.00;99.90
34147;DHT22;20423;49.448;9.056;2023-09-30T03:27:41;12.90;99.90
34147;DHT22;20423;49.448;9.056;2023-09-30T03:30:08;12.90;99.90
34147;DHT22;20423;49.448;9.056;2023-09-30T03:32:34;12.90;99.90
34147;DHT22;20423;49.448;9.056;2023-09-30T03:35:07;12.90;99.90
34147;DHT22;20423;49.448;9.056;2023-09-30T03:37:32;12.90;99.90
34147;DHT22;20423;49.448;9.056;2023-09-30T03:39:58;12.90;99.90
34147;DHT22;20423;49.448;9.056;2023-09-30T03:42:24;12.90;99.90
34147;DHT22;20423;49.448;9.056;2023-09-30T03:44:50;12.90;99.90
34147;DHT22;20423;49.448;9.056;2023-09-30T03:47:19;12.90;99.90
34147;DHT22;20423;49.448;9.056;2023-09-30T03:50:16;12.90;99.90
34147;DHT22;20423;49.448;9.056;2023-09-30T03:52:43;12.80;99.90
34147;DHT22;20423;49.448;9.056;2023-09-30T03:55:13;12.80;99.90
34147;DHT22;20423;49.448;9.056;2023-09-30T03:57:41;12.80;99.90
34147;DHT22;20423;49.448;9.056;2023-09-30T04:00:07;12.80;99.90
34147;DHT22;20423;49.448;9.056;2023-09-30T04:02:39;12.80;99.90
34147;DHT22;20423;49.448;9.056;2023-09-30T04:05:08;12.90;99.90
34147;DHT22;20423;49.448;9.056;2023-09-30T04:08:04;12.90;99.90
34147;DHT22;20423;49.448;9.056;2023-09-30T04:10:30;12.80;99.90
34147;DHT22;20423;49.448;9.056;2023-09-30T04:12:56;12.80;99.90
34147;DHT22;20423;49.448;9.056;2023-09-30T04:15:22;12.80;99.90
34147;DHT22;20423;49.448;9.056;2023-09-30T04:17:50;12.80;99.90
34147;DHT22;20423;49.448;9.056;2023-09-30T04:20:18;12.80;99.90
34147;DHT22;20423;49.448;9.056;2023-09-30T04:22:49;12.70;99.90
34147;DHT22;20423;49.448;9.056;2023-09-30T04:25:16;12.80;99.90
34147;DHT22;20423;49.448;9.056;2023-09-30T04:27:46;12.80;99.90
34147;DHT22;20423;49.448;9.056;2023-09-30T04:30:13;12.80;99.90
34147;DHT22;20423;49.448;9.056;2023-09-30T04:32:40;12.70;99.90
34147;DHT22;20423;49.448;9.056;2023-09-30T04:35:07;12.70;99.90
34147;DHT22;20423;49.448;9.056;2023-09-30T04:37:35;12.60;99.90
34147;DHT22;20423;49.448;9.056;2023-09-30T04:40:06;12.60;99.90
34147;DHT22;20423;49.448;9.056;2023-09-30T04:42:42;12.60;99.90
34147;DHT22;20423;49.448;9.056;2023-09-30T04:45:10;12.50;99.90
34147;DHT22;20423;49.448;9.056;2023-09-30T04:47:36;12.40;99.90
34147;DHT22;20423;49.448;9.056;2023-09-30T04:50:03;12.40;99.90
34147;DHT22;20423;49.448;9.056;2023-09-30T04:52:33;12.30;99.90
34147;DHT22;20423;49.448;9.056;2023-09-30T04:54:59;12.30;99.90
34147;DHT22;20423;49.448;9.056;2023-09-30T04:57:26;12.10;99.90
34147;DHT22;20423;49.448;9.056;2023-09-30T04:59:52;12.00;99.90
34147;DHT22;20423;49.448;9.056;2023-09-30T05:02:17;12.00;99.90
34147;DHT22;20423;49.448;9.056;2023-09-30T05:04:43;11.80;99.90
34147;DHT22;20423;49.448;9.056;2023-09-30T05:07:09;11.70;99.90
34147;DHT22;20423;49.448;9.056;2023-09-30T05:09:34;11.50;99.90
34147;DHT22;20423;49.448;9.056;2023-09-30T05:12:00;11.50;99.90
34147;DHT22;20423;49.448;9.056;2023-09-30T05:14:26;11.40;99.90
34147;DHT22;20423;49.448;9.056;2023-09-30T05:16:54;11.30;99.90
34147;DHT22;20423;49.448;9.056;2023-09-30T05:19:22;11.20;99.90
34147;DHT22;20423;49.448;9.056;2023-09-30T05:21:47;11.20;99.90
34147;DHT22;20423;49.448;9.056;2023-09-30T05:24:14;11.20;99.90
34147;DHT22;20423;49.448;9.056;2023-09-30T05:26:41;11.10;99.90
34147;DHT22;20423;49.448;9.056;2023-09-30T05:29:06;11.20;99.90
34147;DHT22;20423;49.448;9.056;2023-09-30T05:31:33;11.20;99.90
34147;DHT22;20423;49.448;9.056;2023-09-30T05:33:58;11.40;99.90
34147;DHT22;20423;49.448;9.056;2023-09-30T05:36:24;11.40;99.90
34147;DHT22;20423;49.448;9.056;2023-09-30T05:38:50;11.50;99.90
34147;DHT22;20423;49.448;9.056;2023-09-30T05:41:16;11.60;99.90
34147;DHT22;20423;49.448;9.056;2023-09-30T05:43:41;11.80;99.90
34147;DHT22;20423;49.448;9.056;2023-09-30T05:46:09;12.00;99.90
34147;DHT22;20423;49.448;9.056;2023-09-30T05:48:35;12.00;99.90
34147;DHT22;20423;49.448;9.056;2023-09-30T05:51:00;12.10;99.90
34147;DHT22;20423;49.448;9.056;2023-09-30T05:53:28;12.20;99.90
34147;DHT22;20423;49.448;9.056;2023-09-30T05:55:54;12.30;99.90
34147;DHT22;20423;49.448;9.056;2023-09-30T05:58:19;12.40;99.90
34147;DHT22;20423;49.448;9.056;2023-09-30T06:00:46;12.40;99.90
34147;DHT22;20423;49.448;9.056;2023-09-30T06:03:11;12.40;99.90
34147;DHT22;20423;49.448;9.056;2023-09-30T06:05:41;12.40;99.90
34147;DHT22;20423;49.448;9.056;2023-09-30T06:08:09;12.50;99.90
34147;DHT22;20423;49.448;9.056;2023-09-30T06:10:44;12.50;99.90
34147;DHT22;20423;49.448;9.056;2023-09-30T06:13:11;12.60;99.90
34147;DHT22;20423;49.448;9.056;2023-09-30T06:15:41;12.60;99.90
34147;DHT22;20423;49.448;9.056;2023-09-30T06:18:07;12.60;99.90
34147;DHT22;20423;49.448;9.056;2023-09-30T06:20:35;12.60;99.90
34147;DHT22;20423;49.448;9.056;2023-09-30T06:23:01;12.60;99.90
34147;DHT22;20423;49.448;9.056;2023-09-30T06:25:26;12.60;99.90
34147;DHT22;20423;49.448;9.056;2023-09-30T06:27:54;12.70;99.90
34147;DHT22;20423;49.448;9.056;2023-09-30T06:30:23;12.80;99.90
34147;DHT22;20423;49.448;9.056;2023-09-30T06:32:56;12.80;99.90
34147;DHT22;20423;49.448;9.056;2023-09-30T06:35:21;12.80;99.90
34147;DHT22;20423;49.448;9.056;2023-09-30T06:37:48;12.80;99.90
34147;DHT22;20423;49.448;9.056;2023-09-30T06:40:14;12.90;99.90
34147;DHT22;20423;49.448;9.056;2023-09-30T06:42:40;12.90;99.90
34147;DHT22;20423;49.448;9.056;2023-09-30T06:45:07;12.70;99.90
34147;DHT22;20423;49.448;9.056;2023-09-30T06:47:37;12.70;99.90
34147;DHT22;20423;49.448;9.056;2023-09-30T06:50:05;12.80;99.90
34147;DHT22;20423;49.448;9.056;2023-09-30T06:52:35;13.00;99.90
34147;DHT22;20423;49.448;9.056;2023-09-30T06:55:02;13.00;99.90
34147;DHT22;20423;49.448;9.056;2023-09-30T06:57:31;13.00;99.90
34147;DHT22;20423;49.448;9.056;2023-09-30T06:59:57;13.00;99.90
34147;DHT22;20423;49.448;9.056;2023-09-30T07:02:23;13.00;99.90
34147;DHT22;20423;49.448;9.056;2023-09-30T07:04:49;13.10;99.90
34147;DHT22;20423;49.448;9.056;2023-09-30T07:07:15;13.20;99.90
34147;DHT22;20423;49.448;9.056;2023-09-30T07:09:43;13.20;99.90
34147;DHT22;20423;49.448;9.056;2023-09-30T07:12:09;13.20;99.90
34147;DHT22;20423;49.448;9.056;2023-09-30T07:14:35;13.30;99.90
34147;DHT22;20423;49.448;9.056;2023-09-30T07:17:00;13.40;99.90
34147;DHT22;20423;49.448;9.056;2023-09-30T07:19:26;13.40;99.90
34147;DHT22;20423;49.448;9.056;2023-09-30T07:21:52;13.40;99.90
34147;DHT22;20423;49.448;9.056;2023-09-30T07:24:17;13.50;99.90
34147;DHT22;20423;49.448;9.056;2023-09-30T07:26:43;13.50;99.90
34147;DHT22;20423;49.448;9.056;2023-09-30T07:29:09;13.50;99.90
34147;DHT22;20423;49.448;9.056;2023-09-30T07:31:36;13.60;99.90
34147;DHT22;20423;49.448;9.056;2023-09-30T07:34:02;13.60;99.90
34147;DHT22;20423;49.448;9.056;2023-09-30T07:36:28;13.70;99.90
34147;DHT22;20423;49.448;9.056;2023-09-30T07:38:53;13.80;99.90
34147;DHT22;20423;49.448;9.056;2023-09-30T07:41:20;13.90;99.90
34147;DHT22;20423;49.448;9.056;2023-09-30T07:43:45;14.00;99.90
34147;DHT22;20423;49.448;9.056;2023-09-30T07:46:11;14.20;99.90
34147;DHT22;20423;49.448;9.056;2023-09-30T07:48:37;14.30;99.90
34147;DHT22;20423;49.448;9.056;2023-09-30T07:51:05;14.30;99.90
34147;DHT22;20423;49.448;9.056;2023-09-30T07:53:35;14.40;99.90
34147;DHT22;20423;49.448;9.056;2023-09-30T07:56:00;14.50;99.90
34147;DHT22;20423;49.448;9.056;2023-09-30T07:58:26;14.50;99.90
34147;DHT22;20423;49.448;9.056;2023-09-30T08:00:52;14.50;99.90
34147;DHT22;20423;49.448;9.056;2023-09-30T08:03:18;14.60;99.90
34147;DHT22;20423;49.448;9.056;2023-09-30T08:05:44;14.60;99.90
34147;DHT22;20423;49.448;9.056;2023-09-30T08:08:12;14.70;99.90
34147;DHT22;20423;49.448;9.056;2023-09-30T08:10:37;14.80;99.90
34147;DHT22;20423;49.448;9.056;2023-09-30T08:13:03;14.90;99.90
34147;DHT22;20423;49.448;9.056;2023-09-30T08:15:29;14.90;99.90
34147;DHT22;20423;49.448;9.056;2023-09-30T08:17:56;15.00;99.90
34147;DHT22;20423;49.448;9.056;2023-09-30T08:20:21;15.00;99.90
34147;DHT22;20423;49.448;9.056;2023-09-30T08:22:47;15.10;99.90
34147;DHT22;20423;49.448;9.056;2023-09-30T08:25:13;15.30;99.90
34147;DHT22;20423;49.448;9.056;2023-09-30T08:27:57;15.50;99.90
34147;DHT22;20423;49.448;9.056;2023-09-30T08:30:23;15.70;99.90
34147;DHT22;20423;49.448;9.056;2023-09-30T08:32:48;15.70;99.90
34147;DHT22;20423;49.448;9.056;2023-09-30T08:35:39;15.70;99.90
34147;DHT22;20423;49.448;9.056;2023-09-30T08:38:05;15.50;99.90
34147;DHT22;20423;49.448;9.056;2023-09-30T08:40:31;15.50;99.90
34147;DHT22;20423;49.448;9.056;2023-09-30T08:42:57;15.30;99.90
34147;DHT22;20423;49.448;9.056;2023-09-30T08:45:23;15.30;99.90
34147;DHT22;20423;49.448;9.056;2023-09-30T08:47:50;15.10;99.90
34147;DHT22;20423;49.448;9.056;2023-09-30T08:50:17;15.00;99.90
34147;DHT22;20423;49.448;9.056;2023-09-30T08:52:44;14.90;99.90
34147;DHT22;20423;49.448;9.056;2023-09-30T08:55:11;14.80;99.90
34147;DHT22;20423;49.448;9.056;2023-09-30T08:57:38;14.70;99.90
34147;DHT22;20423;49.448;9.056;2023-09-30T09:00:11;14.80;99.90
34147;DHT22;20423;49.448;9.056;2023-09-30T09:02:37;15.00;99.90
34147;DHT22;20423;49.448;9.056;2023-09-30T09:05:04;15.10;99.90
34147;DHT22;20423;49.448;9.056;2023-09-30T09:07:29;15.10;99.90
34147;DHT22;20423;49.448;9.056;2023-09-30T09:10:07;15.30;99.90
34147;DHT22;20423;49.448;9.056;2023-09-30T09:12:35;15.30;99.90
34147;DHT22;20423;49.448;9.056;2023-09-30T09:15:01;15.20;99.90
34147;DHT22;20423;49.448;9.056;2023-09-30T09:17:43;15.40;99.90
34147;DHT22;20423;49.448;9.056;2023-09-30T09:20:10;15.50;99.90
34147;DHT22;20423;49.448;9.056;2023-09-30T09:22:43;15.80;99.90
34147;DHT22;20423;49.448;9.056;2023-09-30T09:25:10;16.30;99.90
34147;DHT22;20423;49.448;9.056;2023-09-30T09:27:36;16.70;99.90
34147;DHT22;20423;49.448;9.056;2023-09-30T09:33:07;17.80;99.90
34147;DHT22;20423;49.448;9.056;2023-09-30T09:35:34;18.80;99.90
34147;DHT22;20423;49.448;9.056;2023-09-30T09:40:30;20.10;99.90
34147;DHT22;20423;49.448;9.056;2023-09-30T09:42:58;20.30;99.90
34147;DHT22;20423;49.448;9.056;2023-09-30T09:45:26;20.40;99.90
34147;DHT22;20423;49.448;9.056;2023-09-30T09:47:55;20.70;99.90
34147;DHT22;20423;49.448;9.056;2023-09-30T09:50:22;20.60;99.90
34147;DHT22;20423;49.448;9.056;2023-09-30T09:52:50;20.70;99.90
34147;DHT22;20423;49.448;9.056;2023-09-30T09:55:21;20.50;99.90
34147;DHT22;20423;49.448;9.056;2023-09-30T09:57:48;20.40;99.90
34147;DHT22;20423;49.448;9.056;2023-09-30T10:00:23;19.80;99.90
34147;DHT22;20423;49.448;9.056;2023-09-30T10:02:50;19.20;99.90
34147;DHT22;20423;49.448;9.056;2023-09-30T10:05:17;19.10;99.90
34147;DHT22;20423;49.448;9.056;2023-09-30T10:08:14;18.90;99.90
34147;DHT22;20423;49.448;9.056;2023-09-30T10:10:44;18.10;99.90
34147;DHT22;20423;49.448;9.056;2023-09-30T10:13:12;18.20;99.90
34147;DHT22;20423;49.448;9.056;2023-09-30T10:15:55;18.40;99.90
34147;DHT22;20423;49.448;9.056;2023-09-30T10:18:21;18.10;99.90
34147;DHT22;20423;49.448;9.056;2023-09-30T10:20:46;18.20;99.90
34147;DHT22;20423;49.448;9.056;2023-09-30T10:23:23;18.60;99.90
34147;DHT22;20423;49.448;9.056;2023-09-30T10:31:13;19.70;99.90
34147;DHT22;20423;49.448;9.056;2023-09-30T10:36:31;20.60;99.90
34147;DHT22;20423;49.448;9.056;2023-09-30T10:39:00;20.70;99.90
34147;DHT22;20423;49.448;9.056;2023-09-30T10:49:46;20.40;99.90
34147;DHT22;20423;49.448;9.056;2023-09-30T10:52:24;20.40;99.90
34147;DHT22;20423;49.448;9.056;2023-09-30T10:54:51;20.50;99.90
34147;DHT22;20423;49.448;9.056;2023-09-30T10:57:27;19.90;99.90
34147;DHT22;20423;49.448;9.056;2023-09-30T11:00:12;19.50;99.90
34147;DHT22;20423;49.448;9.056;2023-09-30T11:02:50;19.50;99.90
34147;DHT22;20423;49.448;9.056;2023-09-30T11:05:17;19.80;99.90
34147;DHT22;20423;49.448;9.056;2023-09-30T11:07:46;19.90;99.90
34147;DHT22;20423;49.448;9.056;2023-09-30T11:10:16;19.30;99.90
34147;DHT22;20423;49.448;9.056;2023-09-30T11:12:56;19.30;99.90
34147;DHT22;20423;49.448;9.056;2023-09-30T11:15:22;20.10;99.90
34147;DHT22;20423;49.448;9.056;2023-09-30T11:17:49;20.70;99.90
34147;DHT22;20423;49.448;9.056;2023-09-30T11:20:16;20.80;99.90
34147;DHT22;20423;49.448;9.056;2023-09-30T11:22:47;20.40;99.90
34147;DHT22;20423;49.448;9.056;2023-09-30T11:25:17;20.60;99.90
34147;DHT22;20423;49.448;9.056;2023-09-30T11:27:43;20.70;99.90
34147;DHT22;20423;49.448;9.056;2023-09-30T11:30:10;20.70;99.90
34147;DHT22;20423;49.448;9.056;2023-09-30T11:32:36;20.30;99.90
34147;DHT22;20423;49.448;9.056;2023-09-30T11:35:02;20.60;99.90
34147;DHT22;20423;49.448;9.056;2023-09-30T11:37:34;20.70;99.90
34147;DHT22;20423;49.448;9.056;2023-09-30T11:40:11;20.00;99.90
34147;DHT22;20423;49.448;9.056;2023-09-30T11:42:37;19.90;99.90
34147;DHT22;20423;49.448;9.056;2023-09-30T11:45:21;20.20;99.90
34147;DHT22;20423;49.448;9.056;2023-09-30T11:47:49;19.90;99.90
34147;DHT22;20423;49.448;9.056;2023-09-30T11:50:15;19.50;99.90
34147;DHT22;20423;49.448;9.056;2023-09-30T11:52:44;19.50;99.90
34147;DHT22;20423;49.448;9.056;2023-09-30T11:55:12;20.10;99.90
34147;DHT22;20423;49.448;9.056;2023-09-30T11:57:38;20.60;99.90
34147;DHT22;20423;49.448;9.056;2023-09-30T12:00:04;21.30;99.90
34147;DHT22;20423;49.448;9.056;2023-09-30T12:02:38;21.90;99.90
34147;DHT22;20423;49.448;9.056;2023-09-30T12:05:06;22.30;99.90
34147;DHT22;20423;49.448;9.056;2023-09-30T12:07:38;21.90;99.90
34147;DHT22;20423;49.448;9.056;2023-09-30T12:10:07;22.30;99.90
34147;DHT22;20423;49.448;9.056;2023-09-30T12:12:33;22.60;99.90
34147;DHT22;20423;49.448;9.056;2023-09-30T12:14:58;22.30;99.90
34147;DHT22;20423;49.448;9.056;2023-09-30T12:17:24;22.50;99.90
34147;DHT22;20423;49.448;9.056;2023-09-30T12:19:50;22.10;99.90
34147;DHT22;20423;49.448;9.056;2023-09-30T12:22:16;21.60;99.90
34147;DHT22;20423;49.448;9.056;2023-09-30T12:24:43;21.60;99.90
34147;DHT22;20423;49.448;9.056;2023-09-30T12:27:09;21.30;99.90
34147;DHT22;20423;49.448;9.056;2023-09-30T12:29:35;20.80;99.90
34147;DHT22;20423;49.448;9.056;2023-09-30T12:32:03;20.50;99.90
34147;DHT22;20423;49.448;9.056;2023-09-30T12:34:30;19.90;99.90
34147;DHT22;20423;49.448;9.056;2023-09-30T12:36:58;19.60;99.90
34147;DHT22;20423;49.448;9.056;2023-09-30T12:39:25;19.50;99.90
34147;DHT22;20423;49.448;9.056;2023-09-30T12:41:51;19.10;99.90
34147;DHT22;20423;49.448;9.056;2023-09-30T12:44:16;19.10;99.90
34147;DHT22;20423;49.448;9.056;2023-09-30T12:46:43;19.30;99.90
34147;DHT22;20423;49.448;9.056;2023-09-30T12:49:18;19.70;99.90
34147;DHT22;20423;49.448;9.056;2023-09-30T12:51:44;20.20;99.90
34147;DHT22;20423;49.448;9.056;2023-09-30T12:54:10;20.30;99.90
34147;DHT22;20423;49.448;9.056;2023-09-30T12:56:38;20.20;99.90
34147;DHT22;20423;49.448;9.056;2023-09-30T12:59:03;20.00;99.90
34147;DHT22;20423;49.448;9.056;2023-09-30T13:01:30;19.90;99.90
34147;DHT22;20423;49.448;9.056;2023-09-30T13:03:59;19.70;99.90
34147;DHT22;20423;49.448;9.056;2023-09-30T13:06:25;19.10;99.90
34147;DHT22;20423;49.448;9.056;2023-09-30T13:08:51;18.80;99.90
34147;DHT22;20423;49.448;9.056;2023-09-30T13:11:16;18.30;99.90
34147;DHT22;20423;49.448;9.056;2023-09-30T13:13:43;17.90;99.90
34147;DHT22;20423;49.448;9.056;2023-09-30T13:16:10;17.60;99.90
34147;DHT22;20423;49.448;9.056;2023-09-30T13:18:36;17.50;99.90
34147;DHT22;20423;49.448;9.056;2023-09-30T13:21:39;17.50;99.90
34147;DHT22;20423;49.448;9.056;2023-09-30T13:24:06;17.50;99.90
34147;DHT22;20423;49.448;9.056;2023-09-30T13:26:35;17.60;99.90
34147;DHT22;20423;49.448;9.056;2023-09-30T13:29:00;17.60;99.90
34147;DHT22;20423;49.448;9.056;2023-09-30T13:31:26;17.70;99.90
34147;DHT22;20423;49.448;9.056;2023-09-30T13:33:52;17.70;99.90
34147;DHT22;20423;49.448;9.056;2023-09-30T13:36:45;17.80;99.90
34147;DHT22;20423;49.448;9.056;2023-09-30T13:39:11;17.90;99.90
34147;DHT22;20423;49.448;9.056;2023-09-30T13:41:39;17.90;99.90
34147;DHT22;20423;49.448;9.056;2023-09-30T13:44:06;17.90;99.90
34147;DHT22;20423;49.448;9.056;2023-09-30T13:46:31;17.90;99.90
34147;DHT22;20423;49.448;9.056;2023-09-30T13:48:57;17.80;99.90
34147;DHT22;20423;49.448;9.056;2023-09-30T13:51:23;17.80;99.90
34147;DHT22;20423;49.448;9.056;2023-09-30T13:53:48;17.80;99.90
34147;DHT22;20423;49.448;9.056;2023-09-30T13:56:14;17.80;99.90
34147;DHT22;20423;49.448;9.056;2023-09-30T13:58:40;17.80;99.90
34147;DHT22;20423;49.448;9.056;2023-09-30T14:01:05;17.70;99.90
34147;DHT22;20423;49.448;9.056;2023-09-30T14:03:32;17.60;99.90
34147;DHT22;20423;49.448;9.056;2023-09-30T14:05:59;17.50;99.90
34147;DHT22;20423;49.448;9.056;2023-09-30T14:08:25;17.60;99.90
34147;DHT22;20423;49.448;9.056;2023-09-30T14:10:50;17.60;99.90
34147;DHT22;20423;49.448;9.056;2023-09-30T14:13:19;17.50;99.90
34147;DHT22;20423;49.448;9.056;2023-09-30T14:15:45;17.40;99.90
34147;DHT22;20423;49.448;9.056;2023-09-30T14:18:12;17.40;99.90
34147;DHT22;20423;49.448;9.056;2023-09-30T14:20:38;17.40;99.90
34147;DHT22;20423;49.448;9.056;2023-09-30T14:23:03;17.40;99.90
34147;DHT22;20423;49.448;9.056;2023-09-30T14:25:29;17.30;99.90
34147;DHT22;20423;49.448;9.056;2023-09-30T14:27:56;17.30;99.90
34147;DHT22;20423;49.448;9.056;2023-09-30T14:30:25;17.40;99.90
34147;DHT22;20423;49.448;9.056;2023-09-30T14:32:51;17.50;99.90
34147;DHT22;20423;49.448;9.056;2023-09-30T14:35:17;17.60;99.90
34147;DHT22;20423;49.448;9.056;2023-09-30T14:37:43;17.50;99.90
34147;DHT22;20423;49.448;9.056;2023-09-30T14:40:09;17.60;99.90
34147;DHT22;20423;49.448;9.056;2023-09-30T14:42:39;17.60;99.90
34147;DHT22;20423;49.448;9.056;2023-09-30T14:45:05;17.40;99.90
34147;DHT22;20423;49.448;9.056;2023-09-30T14:47:31;17.40;99.90
34147;DHT22;20423;49.448;9.056;2023-09-30T14:49:57;17.40;99.90
34147;DHT22;20423;49.448;9.056;2023-09-30T14:52:22;17.40;99.90
34147;DHT22;20423;49.448;9.056;2023-09-30T14:54:48;17.40;99.90
34147;DHT22;20423;49.448;9.056;2023-09-30T14:57:14;17.30;99.90
34147;DHT22;20423;49.448;9.056;2023-09-30T14:59:41;17.30;99.90
34147;DHT22;20423;49.448;9.056;2023-09-30T15:02:07;17.20;99.90
34147;DHT22;20423;49.448;9.056;2023-09-30T15:04:36;17.10;99.90
34147;DHT22;20423;49.448;9.056;2023-09-30T15:07:02;17.10;99.90
34147;DHT22;20423;49.448;9.056;2023-09-30T15:09:28;17.10;99.90
34147;DHT22;20423;49.448;9.056;2023-09-30T15:11:53;17.10;99.90
34147;DHT22;20423;49.448;9.056;2023-09-30T15:14:43;17.00;99.90
34147;DHT22;20423;49.448;9.056;2023-09-30T15:17:10;16.90;99.90
34147;DHT22;20423;49.448;9.056;2023-09-30T15:19:36;16.70;99.90
34147;DHT22;20423;49.448;9.056;2023-09-30T15:22:26;16.60;99.90
34147;DHT22;20423;49.448;9.056;2023-09-30T15:24:52;16.50;99.90
34147;DHT22;20423;49.448;9.056;2023-09-30T15:27:18;16.30;99.90
34147;DHT22;20423;49.448;9.056;2023-09-30T15:29:45;16.20;99.90
34147;DHT22;20423;49.448;9.056;2023-09-30T15:32:12;16.00;99.90
34147;DHT22;20423;49.448;9.056;2023-09-30T15:34:38;15.90;99.90
34147;DHT22;20423;49.448;9.056;2023-09-30T15:37:06;15.90;99.90
34147;DHT22;20423;49.448;9.056;2023-09-30T15:39:37;15.80;99.90
34147;DHT22;20423;49.448;9.056;2023-09-30T15:42:03;15.80;99.90
34147;DHT22;20423;49.448;9.056;2023-09-30T15:44:29;15.70;99.90
34147;DHT22;20423;49.448;9.056;2023-09-30T15:46:55;15.60;99.90
34147;DHT22;20423;49.448;9.056;2023-09-30T15:49:22;15.60;99.90
34147;DHT22;20423;49.448;9.056;2023-09-30T15:51:48;15.50;99.90
34147;DHT22;20423;49.448;9.056;2023-09-30T15:54:13;15.50;99.90
34147;DHT22;20423;49.448;9.056;2023-09-30T15:56:40;15.50;99.90